Alan T — WDC9571 — position and weather

sailwx.info

Track history (hours):
 
Tides and Currents Weather Stations Pressure Air Temp Water Temp Dewpoint Dewpoint Depression Visibility Wind Speed Wind Dir Waves Ship Positions

Alan T

Owner: SO CAL SHIP SERVICES, INC, TERMINAL ISLAND, CA. More information available from US FCC via Universal Licensing System and Coast Guard Vessel Documentation Center.

Last reported at 2017-Dec-11 16:59 UTC. Time now 2017-Dec-12 16:15 UTC.
Position N 34°20' W 119°37'.

Length 30 m; draft 2.5 m.

Type: Ship (hazmat cat B). MMSI: 367104060.

Date/timePositionNaut miles runAvg speedWind from/ knotsBaromVisibWave heightAir tempDewpointWater temp
2017-Dec-11 16:59N 34°20' W 119°37'1 2.7
2017-Dec-11 16:29N 34°20' W 119°36'4 8.5
2017-Dec-11 16:00N 34°22' W 119°31'1 1.4
2017-Dec-11 15:30N 34°22' W 119°32'4 8.8
2017-Dec-11 15:00N 34°20' W 119°37'612.1
2017-Dec-11 14:30N 34°23' W 119°30'0 0.6
2017-Dec-11 13:58N 34°23' W 119°31'2 5.0
2017-Dec-11 13:29N 34°21' W 119°32'1 3.0
2017-Dec-11 13:00N 34°20' W 119°34'0 0.0
2017-Dec-11 12:30N 34°20' W 119°34'0 0.0
2017-Dec-11 12:00N 34°20' W 119°34'0 0.0
2017-Dec-11 11:29N 34°20' W 119°34'0 0.0
2017-Dec-11 11:00N 34°20' W 119°34'0 0.0
2017-Dec-11 10:30N 34°20' W 119°34'0 0.0
2017-Dec-11 10:01N 34°20' W 119°34'0 0.0
2017-Dec-11 09:30N 34°20' W 119°34'0 0.0
2017-Dec-11 09:00N 34°20' W 119°34'0 0.0
2017-Dec-11 08:30N 34°20' W 119°34'0 0.0
2017-Dec-11 08:00N 34°20' W 119°34'0 0.0
2017-Dec-11 07:30N 34°20' W 119°34'0 0.0
2017-Dec-11 07:00N 34°20' W 119°34'0 0.0
2017-Dec-11 06:30N 34°20' W 119°34'0 0.0
2017-Dec-11 06:00N 34°20' W 119°34'0 0.0
2017-Dec-11 05:30N 34°20' W 119°34'0 0.0
2017-Dec-11 05:00N 34°20' W 119°34'0 0.0
2017-Dec-11 04:28N 34°20' W 119°34'0 0.0
2017-Dec-11 04:00N 34°20' W 119°34'0 0.0
2017-Dec-11 03:30N 34°20' W 119°34'3 5.4
2017-Dec-11 03:00N 34°22' W 119°31'4 8.4
2017-Dec-11 02:30N 34°20' W 119°36'5 9.3
2017-Dec-11 02:00N 34°22' W 119°31'1 1.4
2017-Dec-11 01:30N 34°23' W 119°30'510.2
2017-Dec-11 01:00N 34°20' W 119°35'1 1.6
2017-Dec-11 00:30N 34°20' W 119°36'1 1.6
2017-Dec-11 00:00N 34°20' W 119°37'3 6.0
2017-Dec-10 23:30N 34°20' W 119°34'1 1.0
2017-Dec-10 23:00N 34°20' W 119°34'2 4.2
2017-Dec-10 22:30N 34°21' W 119°32'1 2.8
2017-Dec-10 22:00N 34°20' W 119°34'2 4.5
2017-Dec-10 21:30N 34°20' W 119°36'0 0.0
2017-Dec-10 21:00N 34°20' W 119°36'0 0.0
2017-Dec-10 20:30N 34°20' W 119°36'0 0.0
2017-Dec-10 19:59N 34°20' W 119°36'0 0.0
2017-Dec-10 19:30N 34°20' W 119°36'0 0.0
2017-Dec-10 18:59N 34°20' W 119°36'0 0.0
2017-Dec-10 18:28N 34°20' W 119°36'1 2.0
2017-Dec-10 18:00N 34°20' W 119°37'1 1.7
2017-Dec-10 17:29N 34°20' W 119°36'0 0.2
2017-Dec-10 17:00N 34°20' W 119°36'2 4.2
2017-Dec-10 16:30N 34°20' W 119°34'0 0.1
2017-Dec-10 16:00N 34°20' W 119°34'4 7.1
2017-Dec-10 15:31N 34°20' W 119°38'2 4.1
2017-Dec-10 15:00N 34°19' W 119°36'5 9.7
2017-Dec-10 14:30N 34°22' W 119°32'1 3.0
2017-Dec-10 14:00N 34°23' W 119°30'3 6.9
2017-Dec-10 13:30N 34°21' W 119°34'4 6.5
2017-Dec-10 12:54N 34°17' W 119°35'3 6.2
2017-Dec-10 12:26N 34°20' W 119°34'1 1.2
2017-Dec-10 11:57N 34°20' W 119°34'3 6.9
2017-Dec-10 11:30N 34°22' W 119°31'3 5.6
2017-Dec-10 11:00N 34°20' W 119°33'1 2.9
2017-Dec-10 10:30N 34°19' W 119°33'4 7.0
2017-Dec-10 09:58N 34°20' W 119°37'3 6.1
2017-Dec-10 09:30N 34°20' W 119°34'0 0.0
2017-Dec-10 09:00N 34°20' W 119°34'0 0.0
2017-Dec-10 08:30N 34°20' W 119°34'0 0.0
2017-Dec-10 08:00N 34°20' W 119°34'0 0.0
2017-Dec-10 07:30N 34°20' W 119°34'0 0.0
2017-Dec-10 06:58N 34°20' W 119°34'0 0.0
2017-Dec-10 06:30N 34°20' W 119°34'0 0.0
2017-Dec-10 05:58N 34°20' W 119°34'0 0.0
2017-Dec-10 05:30N 34°20' W 119°34'0 0.0
2017-Dec-10 05:00N 34°20' W 119°34'0 0.0
2017-Dec-10 04:30N 34°20' W 119°34'0 0.0
2017-Dec-10 04:00N 34°20' W 119°34'0 0.0
2017-Dec-10 03:30N 34°20' W 119°34'2 4.9
2017-Dec-10 03:00N 34°20' W 119°37'611.2
2017-Dec-10 02:30N 34°23' W 119°31'510.8
2017-Dec-10 02:00N 34°20' W 119°37'611.2
2017-Dec-10 01:29N 34°23' W 119°30'510.7
2017-Dec-10 01:00N 34°20' W 119°35'2 4.0
2017-Dec-10 00:30N 34°18' W 119°36'1 1.6
2017-Dec-09 23:59N 34°17' W 119°35'3 6.0
2017-Dec-09 23:30N 34°20' W 119°37'0 0.8
2017-Dec-09 23:01N 34°20' W 119°36'0 0.0
2017-Dec-09 22:30N 34°20' W 119°36'0 0.0
2017-Dec-09 22:00N 34°20' W 119°36'1 2.4
2017-Dec-09 21:30N 34°21' W 119°36'510.7
2017-Dec-09 21:00N 34°24' W 119°42'0 0.0
2017-Dec-09 20:29N 34°24' W 119°42'0 0.0
2017-Dec-09 20:00N 34°24' W 119°42'0 0.0
2017-Dec-09 19:30N 34°24' W 119°42'3 6.6
2017-Dec-09 19:00N 34°24' W 119°38'713.1
2017-Dec-09 18:30N 34°20' W 119°31'0 0.8
2017-Dec-09 18:00N 34°20' W 119°31'4 8.8
2017-Dec-09 17:30N 34°17' W 119°35'0 0.0
2017-Dec-09 17:01N 34°17' W 119°35'3 6.2
2017-Dec-09 16:30N 34°20' W 119°33'2 4.6
2017-Dec-09 16:00N 34°21' W 119°31'1 1.5
2017-Dec-09 15:30N 34°22' W 119°31'611.1
2017-Dec-09 15:00N 34°20' W 119°38'713.2
2017-Dec-09 14:30N 34°23' W 119°30'0 0.0
2017-Dec-09 14:00N 34°23' W 119°30'1 1.3
2017-Dec-09 13:27N 34°22' W 119°30'0 0.0
2017-Dec-09 13:00N 34°22' W 119°30'0 0.0
2017-Dec-09 12:29N 34°22' W 119°30'0 0.0
2017-Dec-09 12:00N 34°22' W 119°30'0 0.0
2017-Dec-09 11:30N 34°22' W 119°30'0 0.0
2017-Dec-09 11:00N 34°22' W 119°30'0 0.0
2017-Dec-09 10:30N 34°22' W 119°30'0 0.0
2017-Dec-09 09:59N 34°22' W 119°30'0 0.0
2017-Dec-09 09:29N 34°22' W 119°30'0 0.0
2017-Dec-09 08:59N 34°22' W 119°30'0 0.0
2017-Dec-09 08:29N 34°22' W 119°30'0 0.0
2017-Dec-09 07:59N 34°22' W 119°30'0 0.0
2017-Dec-09 07:27N 34°22' W 119°30'0 0.0
2017-Dec-09 06:59N 34°22' W 119°30'0 0.0
2017-Dec-09 06:30N 34°22' W 119°30'0 0.0
2017-Dec-09 05:58N 34°22' W 119°30'0 0.0
2017-Dec-09 05:30N 34°22' W 119°30'0 0.0
2017-Dec-09 05:00N 34°22' W 119°30'0 0.0
2017-Dec-09 04:29N 34°22' W 119°30'0 0.0
2017-Dec-09 03:59N 34°22' W 119°30'0 0.0
2017-Dec-09 03:29N 34°22' W 119°30'0 0.0
2017-Dec-09 03:00N 34°22' W 119°30'0 0.0
2017-Dec-09 02:30N 34°22' W 119°30'0 0.0
2017-Dec-09 02:00N 34°22' W 119°30'0 0.1
2017-Dec-09 01:30N 34°22' W 119°30'0 0.0
2017-Dec-09 01:01N 34°22' W 119°30'0 0.1
2017-Dec-09 00:30N 34°22' W 119°30'0 0.0
2017-Dec-08 23:58N 34°22' W 119°30'3 6.2
2017-Dec-08 23:30N 34°21' W 119°33'3 6.1
2017-Dec-08 23:00N 34°20' W 119°36'0 0.3
2017-Dec-08 22:29N 34°20' W 119°36'0 0.0
2017-Dec-08 22:00N 34°20' W 119°36'2 4.4
2017-Dec-08 21:30N 34°20' W 119°34'0 0.1
2017-Dec-08 21:00N 34°20' W 119°34'3 4.7
2017-Dec-08 20:28N 34°20' W 119°37'0 0.1
2017-Dec-08 20:00N 34°20' W 119°37'1 1.7
2017-Dec-08 19:30N 34°20' W 119°38'0 1.0
2017-Dec-08 18:59N 34°20' W 119°37'1 1.1
2017-Dec-08 18:30N 34°20' W 119°38'1 2.9
2017-Dec-08 18:01N 34°20' W 119°36'4 7.8
2017-Dec-08 17:29N 34°22' W 119°32'2 3.5
2017-Dec-08 17:00N 34°23' W 119°30'0 0.0
2017-Dec-08 16:30N 34°23' W 119°30'2 4.5
2017-Dec-08 16:00N 34°21' W 119°32'510.1
2017-Dec-08 15:31N 34°17' W 119°35'3 5.6
2017-Dec-08 14:58N 34°20' W 119°37'613.0
2017-Dec-08 14:30N 34°23' W 119°30'0 0.0
2017-Dec-08 14:00N 34°23' W 119°30'2 3.5
2017-Dec-08 13:31N 34°22' W 119°31'2 4.7
2017-Dec-08 13:00N 34°20' W 119°34'0 0.0
2017-Dec-08 12:30N 34°20' W 119°34'0 0.0
2017-Dec-08 11:59N 34°20' W 119°34'0 0.0
2017-Dec-08 11:31N 34°20' W 119°34'0 0.0
2017-Dec-08 11:00N 34°20' W 119°34'0 0.0
2017-Dec-08 10:30N 34°20' W 119°34'0 0.0
2017-Dec-08 09:59N 34°20' W 119°34'0 0.0
2017-Dec-08 09:31N 34°20' W 119°34'0 0.0
2017-Dec-08 09:00N 34°20' W 119°34'0 0.0
2017-Dec-08 08:29N 34°20' W 119°34'0 0.0
2017-Dec-08 08:01N 34°20' W 119°34'0 0.0
2017-Dec-08 07:30N 34°20' W 119°34'0 0.0
2017-Dec-08 07:01N 34°20' W 119°34'0 0.0
2017-Dec-08 06:30N 34°20' W 119°34'0 0.0
2017-Dec-08 06:00N 34°20' W 119°34'0 0.0
2017-Dec-08 05:31N 34°20' W 119°34'0 0.0
2017-Dec-08 04:57N 34°20' W 119°34'0 0.0
2017-Dec-08 04:30N 34°20' W 119°34'0 0.0
2017-Dec-08 04:01N 34°20' W 119°34'2 4.4
2017-Dec-08 03:29N 34°21' W 119°32'5 9.6
2017-Dec-08 03:00N 34°20' W 119°37'611.4
2017-Dec-08 02:28N 34°23' W 119°30'1 1.5
2017-Dec-08 01:58N 34°23' W 119°30'0 0.0
2017-Dec-08 01:30N 34°23' W 119°30'1 1.4
2017-Dec-08 00:58N 34°23' W 119°30'1 1.5
2017-Dec-08 00:29N 34°22' W 119°30'0 0.0
2017-Dec-07 23:59N 34°22' W 119°30'0 0.1
2017-Dec-07 23:29N 34°22' W 119°30'612.1
2017-Dec-07 23:00N 34°20' W 119°36'611.8
2017-Dec-07 22:30N 34°22' W 119°30'0 0.1
2017-Dec-07 22:00N 34°23' W 119°30'0 0.0
2017-Dec-07 21:30N 34°23' W 119°30'0 0.0
2017-Dec-07 20:59N 34°23' W 119°30'0 0.0
2017-Dec-07 20:29N 34°23' W 119°30'0 0.0
2017-Dec-07 19:58N 34°23' W 119°30'0 0.0
2017-Dec-07 19:28N 34°23' W 119°30'0 0.0
2017-Dec-07 18:59N 34°23' W 119°30'0 0.0
2017-Dec-07 18:30N 34°23' W 119°30'0 0.0
2017-Dec-07 18:00N 34°23' W 119°30'1 1.4
2017-Dec-07 17:30N 34°23' W 119°31'612.9
2017-Dec-07 17:00N 34°20' W 119°38'612.7
2017-Dec-07 16:30N 34°23' W 119°31'1 1.5
2017-Dec-07 16:00N 34°22' W 119°30'510.7
2017-Dec-07 15:30N 34°20' W 119°36'2 4.1
2017-Dec-07 15:01N 34°20' W 119°33'4 6.6
2017-Dec-07 14:28N 34°23' W 119°30'0 1.0
2017-Dec-07 13:58N 34°22' W 119°30'0 0.0
2017-Dec-07 13:28N 34°22' W 119°30'0 0.0
2017-Dec-07 13:00N 34°22' W 119°30'0 0.0
2017-Dec-07 12:30N 34°22' W 119°30'0 0.0
2017-Dec-07 11:59N 34°22' W 119°30'0 0.0
2017-Dec-07 11:29N 34°22' W 119°30'0 0.0
2017-Dec-07 11:00N 34°22' W 119°30'0 0.0
2017-Dec-07 10:31N 34°22' W 119°30'0 0.0
2017-Dec-07 10:01N 34°22' W 119°30'0 0.0
2017-Dec-07 09:30N 34°22' W 119°30'0 0.0
2017-Dec-07 08:59N 34°22' W 119°30'0 0.0
2017-Dec-07 08:30N 34°22' W 119°30'0 0.0
2017-Dec-07 08:00N 34°22' W 119°30'0 0.0
2017-Dec-07 07:29N 34°22' W 119°30'0 0.0
2017-Dec-07 07:00N 34°22' W 119°30'0 0.0
2017-Dec-07 06:30N 34°22' W 119°30'1 1.3
2017-Dec-07 05:58N 34°23' W 119°30'613.2
2017-Dec-07 05:30N 34°20' W 119°37'1 1.9
2017-Dec-07 04:59N 34°20' W 119°38'0 0.0
2017-Dec-07 04:30N 34°20' W 119°38'3 6.8
2017-Dec-07 04:00N 34°20' W 119°34'1 2.9
2017-Dec-07 03:30N 34°21' W 119°32'4 7.6
2017-Dec-07 03:00N 34°20' W 119°37'612.0
2017-Dec-07 02:30N 34°23' W 119°31'0 0.5
2017-Dec-07 02:00N 34°23' W 119°30'0 0.6
2017-Dec-07 01:31N 34°23' W 119°30'713.5
2017-Dec-07 01:00N 34°20' W 119°38'611.9
2017-Dec-07 00:30N 34°22' W 119°31'0 0.4
2017-Dec-06 23:59N 34°22' W 119°31'511.4
2017-Dec-06 23:30N 34°20' W 119°37'2 3.0
2017-Dec-06 23:00N 34°19' W 119°36'2 3.2
2017-Dec-06 22:30N 34°17' W 119°35'0 0.2
2017-Dec-06 21:59N 34°17' W 119°35'3 5.7
2017-Dec-06 21:30N 34°20' W 119°36'4 8.6
2017-Dec-06 21:00N 34°24' W 119°39'  
2017-Dec-04 10:09N 34°22' W 119°30'0 0.0
2017-Dec-04 09:55N 34°22' W 119°30'0 0.0
2017-Dec-04 09:28N 34°22' W 119°30'0 0.0
2017-Dec-04 09:00N 34°22' W 119°30'0 0.0
2017-Dec-04 08:30N 34°22' W 119°30'0 0.0
2017-Dec-04 07:59N 34°22' W 119°30'0 0.0
2017-Dec-04 07:26N 34°22' W 119°30'0 0.0
2017-Dec-04 06:59N 34°22' W 119°30'0 0.0
2017-Dec-04 06:29N 34°22' W 119°30'0 0.0
2017-Dec-04 05:59N 34°22' W 119°30'0 0.0
2017-Dec-04 05:30N 34°22' W 119°30'0 0.0
2017-Dec-04 04:59N 34°22' W 119°30'0 0.0
2017-Dec-04 04:30N 34°22' W 119°30'0 0.0
2017-Dec-04 03:59N 34°22' W 119°30'0 0.0
2017-Dec-04 03:25N 34°22' W 119°30'0 0.0
2017-Dec-04 03:00N 34°22' W 119°30'0 0.0
2017-Dec-04 02:26N 34°22' W 119°30'0 0.0
2017-Dec-04 01:59N 34°22' W 119°30'1 1.5
2017-Dec-04 01:30N 34°23' W 119°30'0 0.9
2017-Dec-04 01:00N 34°23' W 119°31'4 9.1
2017-Dec-04 00:30N 34°20' W 119°35'1 2.6
2017-Dec-03 23:59N 34°20' W 119°37'0 0.3
2017-Dec-03 23:29N 34°20' W 119°37'0 0.0
2017-Dec-03 23:01N 34°20' W 119°37'0 0.4
2017-Dec-03 22:31N 34°20' W 119°37'0 0.9
2017-Dec-03 21:59N 34°20' W 119°37'0 0.8
2017-Dec-03 21:30N 34°20' W 119°37'0 0.0
2017-Dec-03 20:59N 34°20' W 119°37'0 0.0
2017-Dec-03 20:30N 34°20' W 119°37'0 0.1
2017-Dec-03 20:00N 34°20' W 119°37'0 0.0
2017-Dec-03 19:30N 34°20' W 119°37'0 0.0
2017-Dec-03 19:00N 34°20' W 119°37'0 0.0
2017-Dec-03 18:30N 34°20' W 119°37'0 0.0
2017-Dec-03 18:00N 34°20' W 119°37'0 0.0
2017-Dec-03 17:30N 34°20' W 119°37'0 0.0
2017-Dec-03 16:59N 34°20' W 119°37'511.2
2017-Dec-03 16:30N 34°23' W 119°31'1 1.2
2017-Dec-03 16:00N 34°23' W 119°30'4 8.0
2017-Dec-03 15:30N 34°20' W 119°34'2 4.7
2017-Dec-03 15:00N 34°20' W 119°37'611.8
2017-Dec-03 14:30N 34°23' W 119°30'0 0.6
2017-Dec-03 13:59N 34°23' W 119°31'1 1.7
2017-Dec-03 13:30N 34°22' W 119°30'0 0.0
2017-Dec-03 13:00N 34°22' W 119°30'0 0.0
2017-Dec-03 12:30N 34°22' W 119°30'0 0.0
2017-Dec-03 12:00N 34°22' W 119°30'0 0.0
2017-Dec-03 11:25N 34°22' W 119°30'0 0.0
2017-Dec-03 11:00N 34°22' W 119°30'0 0.0
2017-Dec-03 10:30N 34°22' W 119°30'0 0.0
2017-Dec-03 10:00N 34°22' W 119°30'0 0.0
2017-Dec-03 09:30N 34°22' W 119°30'0 0.0
2017-Dec-03 09:00N 34°22' W 119°30'0 0.0
2017-Dec-03 08:30N 34°22' W 119°30'0 0.0
2017-Dec-03 08:00N 34°22' W 119°30'0 0.0
2017-Dec-03 07:30N 34°22' W 119°30'0 0.0
2017-Dec-03 06:58N 34°22' W 119°30'0 0.0
2017-Dec-03 06:28N 34°22' W 119°30'0 0.0
2017-Dec-03 06:00N 34°22' W 119°30'0 0.0
2017-Dec-03 05:27N 34°22' W 119°30'0 0.0
2017-Dec-03 05:00N 34°22' W 119°30'0 0.0
2017-Dec-03 04:27N 34°22' W 119°30'0 0.0
2017-Dec-03 04:00N 34°22' W 119°30'0 0.0
2017-Dec-03 03:30N 34°22' W 119°30'0 0.0
2017-Dec-03 02:59N 34°22' W 119°30'0 0.0
2017-Dec-03 02:30N 34°22' W 119°30'0 0.0
2017-Dec-03 02:00N 34°22' W 119°30'1 1.2
2017-Dec-03 01:30N 34°23' W 119°30'1 1.2
2017-Dec-03 01:00N 34°22' W 119°30'0 0.0
2017-Dec-03 00:29N 34°22' W 119°30'0 0.0
2017-Dec-03 00:00N 34°22' W 119°30'0 0.0
2017-Dec-02 23:30N 34°22' W 119°30'0 0.0
2017-Dec-02 23:00N 34°22' W 119°30'714.0
2017-Dec-02 22:30N 34°20' W 119°38'3 6.9
2017-Dec-02 22:00N 34°23' W 119°38'3 6.8
2017-Dec-02 21:30N 34°24' W 119°42'0 0.0
2017-Dec-02 21:00N 34°24' W 119°42'0 0.0
2017-Dec-02 20:30N 34°24' W 119°42'1 2.8
2017-Dec-02 20:00N 34°24' W 119°40'815.6
2017-Dec-02 19:30N 34°23' W 119°30'0 0.0
2017-Dec-02 19:00N 34°23' W 119°30'0 0.0
2017-Dec-02 18:28N 34°23' W 119°30'511.0
2017-Dec-02 18:00N 34°20' W 119°35'1 1.3
2017-Dec-02 17:29N 34°20' W 119°36'0 0.1
2017-Dec-02 17:00N 34°20' W 119°36'1 1.1
2017-Dec-02 16:30N 34°20' W 119°37'0 0.8
2017-Dec-02 16:00N 34°20' W 119°37'0 1.0
2017-Dec-02 15:30N 34°20' W 119°38'4 8.6
2017-Dec-02 15:00N 34°20' W 119°33'3 6.3
2017-Dec-02 14:28N 34°23' W 119°30'0 0.8
2017-Dec-02 14:00N 34°23' W 119°31'1 1.5
2017-Dec-02 13:30N 34°22' W 119°30'0 0.0
2017-Dec-02 13:00N 34°22' W 119°30'0 0.0
2017-Dec-02 12:30N 34°22' W 119°30'0 0.0
2017-Dec-02 12:00N 34°22' W 119°30'0 0.0
2017-Dec-02 11:29N 34°22' W 119°30'0 0.0
2017-Dec-02 11:00N 34°22' W 119°30'0 0.0
2017-Dec-02 10:30N 34°22' W 119°30'0 0.0
2017-Dec-02 10:00N 34°22' W 119°30'0 0.0
2017-Dec-02 09:30N 34°22' W 119°30'0 0.0
2017-Dec-02 09:00N 34°22' W 119°30'0 0.0
2017-Dec-02 08:26N 34°22' W 119°30'0 0.0
2017-Dec-02 08:00N 34°22' W 119°30'0 0.0
2017-Dec-02 07:30N 34°22' W 119°30'0 0.0
2017-Dec-02 07:00N 34°22' W 119°30'0 0.0
2017-Dec-02 06:29N 34°22' W 119°30'0 0.0
2017-Dec-02 05:58N 34°22' W 119°30'0 0.0
2017-Dec-02 05:29N 34°22' W 119°30'0 0.0
2017-Dec-02 05:00N 34°22' W 119°30'0 0.0
2017-Dec-02 04:29N 34°22' W 119°30'0 0.0
2017-Dec-02 04:00N 34°22' W 119°30'0 0.0
2017-Dec-02 03:30N 34°22' W 119°30'0 0.0
2017-Dec-02 02:56N 34°22' W 119°30'0 0.0
2017-Dec-02 02:28N 34°22' W 119°30'0 0.0
2017-Dec-02 01:58N 34°22' W 119°30'0 0.4
2017-Dec-02 01:30N 34°23' W 119°30'0 0.0
2017-Dec-02 00:59N 34°23' W 119°30'0 0.0
2017-Dec-02 00:30N 34°23' W 119°30'0 0.0
2017-Dec-02 00:00N 34°23' W 119°30'2 3.2
2017-Dec-01 23:30N 34°21' W 119°32'510.0
2017-Dec-01 23:00N 34°20' W 119°37'1 1.1
2017-Dec-01 22:30N 34°20' W 119°38'0 0.3
2017-Dec-01 22:00N 34°20' W 119°38'4 6.8
2017-Dec-01 21:29N 34°17' W 119°35'2 4.4
2017-Dec-01 21:00N 34°19' W 119°37'3 5.8
2017-Dec-01 20:30N 34°20' W 119°33'0 0.4
2017-Dec-01 20:00N 34°20' W 119°33'3 5.6
2017-Dec-01 19:30N 34°20' W 119°37'0 1.0
2017-Dec-01 19:00N 34°20' W 119°36'0 0.0
2017-Dec-01 18:30N 34°20' W 119°36'2 4.3
2017-Dec-01 18:00N 34°20' W 119°34'4 7.1
2017-Dec-01 17:30N 34°23' W 119°31'0 0.8
2017-Dec-01 17:01N 34°23' W 119°30'  
Track history (hours):
 
Tides and Currents Weather Stations Pressure Air Temp Water Temp Dewpoint Dewpoint Depression Visibility Wind Speed Wind Dir Waves Ship Positions

Alan T

Owner: SO CAL SHIP SERVICES, INC, TERMINAL ISLAND, CA. More information available from US FCC via Universal Licensing System and Coast Guard Vessel Documentation Center.

Last reported at 2017-Dec-11 16:59 UTC. Time now 2017-Dec-12 16:15 UTC.
Position N 34°20' W 119°37'.

Length 30 m; draft 2.5 m.

Type: Ship (hazmat cat B). MMSI: 367104060.

Date/timePositionNaut miles runAvg speedWind from/ knotsBaromVisibWave heightAir tempDewpointWater temp
2017-Dec-11 16:59N 34°20' W 119°37'1 2.7
2017-Dec-11 16:29N 34°20' W 119°36'4 8.5
2017-Dec-11 16:00N 34°22' W 119°31'1 1.4
2017-Dec-11 15:30N 34°22' W 119°32'4 8.8
2017-Dec-11 15:00N 34°20' W 119°37'612.1
2017-Dec-11 14:30N 34°23' W 119°30'0 0.6
2017-Dec-11 13:58N 34°23' W 119°31'2 5.0
2017-Dec-11 13:29N 34°21' W 119°32'1 3.0
2017-Dec-11 13:00N 34°20' W 119°34'0 0.0
2017-Dec-11 12:30N 34°20' W 119°34'0 0.0
2017-Dec-11 12:00N 34°20' W 119°34'0 0.0
2017-Dec-11 11:29N 34°20' W 119°34'0 0.0
2017-Dec-11 11:00N 34°20' W 119°34'0 0.0
2017-Dec-11 10:30N 34°20' W 119°34'0 0.0
2017-Dec-11 10:01N 34°20' W 119°34'0 0.0
2017-Dec-11 09:30N 34°20' W 119°34'0 0.0
2017-Dec-11 09:00N 34°20' W 119°34'0 0.0
2017-Dec-11 08:30N 34°20' W 119°34'0 0.0
2017-Dec-11 08:00N 34°20' W 119°34'0 0.0
2017-Dec-11 07:30N 34°20' W 119°34'0 0.0
2017-Dec-11 07:00N 34°20' W 119°34'0 0.0
2017-Dec-11 06:30N 34°20' W 119°34'0 0.0
2017-Dec-11 06:00N 34°20' W 119°34'0 0.0
2017-Dec-11 05:30N 34°20' W 119°34'0 0.0
2017-Dec-11 05:00N 34°20' W 119°34'0 0.0
2017-Dec-11 04:28N 34°20' W 119°34'0 0.0
2017-Dec-11 04:00N 34°20' W 119°34'0 0.0
2017-Dec-11 03:30N 34°20' W 119°34'3 5.4
2017-Dec-11 03:00N 34°22' W 119°31'4 8.4
2017-Dec-11 02:30N 34°20' W 119°36'5 9.3
2017-Dec-11 02:00N 34°22' W 119°31'1 1.4
2017-Dec-11 01:30N 34°23' W 119°30'510.2
2017-Dec-11 01:00N 34°20' W 119°35'1 1.6
2017-Dec-11 00:30N 34°20' W 119°36'1 1.6
2017-Dec-11 00:00N 34°20' W 119°37'3 6.0
2017-Dec-10 23:30N 34°20' W 119°34'1 1.0
2017-Dec-10 23:00N 34°20' W 119°34'2 4.2
2017-Dec-10 22:30N 34°21' W 119°32'1 2.8
2017-Dec-10 22:00N 34°20' W 119°34'2 4.5
2017-Dec-10 21:30N 34°20' W 119°36'0 0.0
2017-Dec-10 21:00N 34°20' W 119°36'0 0.0
2017-Dec-10 20:30N 34°20' W 119°36'0 0.0
2017-Dec-10 19:59N 34°20' W 119°36'0 0.0
2017-Dec-10 19:30N 34°20' W 119°36'0 0.0
2017-Dec-10 18:59N 34°20' W 119°36'0 0.0
2017-Dec-10 18:28N 34°20' W 119°36'1 2.0
2017-Dec-10 18:00N 34°20' W 119°37'1 1.7
2017-Dec-10 17:29N 34°20' W 119°36'0 0.2
2017-Dec-10 17:00N 34°20' W 119°36'2 4.2
2017-Dec-10 16:30N 34°20' W 119°34'0 0.1
2017-Dec-10 16:00N 34°20' W 119°34'4 7.1
2017-Dec-10 15:31N 34°20' W 119°38'2 4.1
2017-Dec-10 15:00N 34°19' W 119°36'5 9.7
2017-Dec-10 14:30N 34°22' W 119°32'1 3.0
2017-Dec-10 14:00N 34°23' W 119°30'3 6.9
2017-Dec-10 13:30N 34°21' W 119°34'4 6.5
2017-Dec-10 12:54N 34°17' W 119°35'3 6.2
2017-Dec-10 12:26N 34°20' W 119°34'1 1.2
2017-Dec-10 11:57N 34°20' W 119°34'3 6.9
2017-Dec-10 11:30N 34°22' W 119°31'3 5.6
2017-Dec-10 11:00N 34°20' W 119°33'1 2.9
2017-Dec-10 10:30N 34°19' W 119°33'4 7.0
2017-Dec-10 09:58N 34°20' W 119°37'3 6.1
2017-Dec-10 09:30N 34°20' W 119°34'0 0.0
2017-Dec-10 09:00N 34°20' W 119°34'0 0.0
2017-Dec-10 08:30N 34°20' W 119°34'0 0.0
2017-Dec-10 08:00N 34°20' W 119°34'0 0.0
2017-Dec-10 07:30N 34°20' W 119°34'0 0.0
2017-Dec-10 06:58N 34°20' W 119°34'0 0.0
2017-Dec-10 06:30N 34°20' W 119°34'0 0.0
2017-Dec-10 05:58N 34°20' W 119°34'0 0.0
2017-Dec-10 05:30N 34°20' W 119°34'0 0.0
2017-Dec-10 05:00N 34°20' W 119°34'0 0.0
2017-Dec-10 04:30N 34°20' W 119°34'0 0.0
2017-Dec-10 04:00N 34°20' W 119°34'0 0.0
2017-Dec-10 03:30N 34°20' W 119°34'2 4.9
2017-Dec-10 03:00N 34°20' W 119°37'611.2
2017-Dec-10 02:30N 34°23' W 119°31'510.8
2017-Dec-10 02:00N 34°20' W 119°37'611.2
2017-Dec-10 01:29N 34°23' W 119°30'510.7
2017-Dec-10 01:00N 34°20' W 119°35'2 4.0
2017-Dec-10 00:30N 34°18' W 119°36'1 1.6
2017-Dec-09 23:59N 34°17' W 119°35'3 6.0
2017-Dec-09 23:30N 34°20' W 119°37'0 0.8
2017-Dec-09 23:01N 34°20' W 119°36'0 0.0
2017-Dec-09 22:30N 34°20' W 119°36'0 0.0
2017-Dec-09 22:00N 34°20' W 119°36'1 2.4
2017-Dec-09 21:30N 34°21' W 119°36'510.7
2017-Dec-09 21:00N 34°24' W 119°42'0 0.0
2017-Dec-09 20:29N 34°24' W 119°42'0 0.0
2017-Dec-09 20:00N 34°24' W 119°42'0 0.0
2017-Dec-09 19:30N 34°24' W 119°42'3 6.6
2017-Dec-09 19:00N 34°24' W 119°38'713.1
2017-Dec-09 18:30N 34°20' W 119°31'0 0.8
2017-Dec-09 18:00N 34°20' W 119°31'4 8.8
2017-Dec-09 17:30N 34°17' W 119°35'0 0.0
2017-Dec-09 17:01N 34°17' W 119°35'3 6.2
2017-Dec-09 16:30N 34°20' W 119°33'2 4.6
2017-Dec-09 16:00N 34°21' W 119°31'1 1.5
2017-Dec-09 15:30N 34°22' W 119°31'611.1
2017-Dec-09 15:00N 34°20' W 119°38'713.2
2017-Dec-09 14:30N 34°23' W 119°30'0 0.0
2017-Dec-09 14:00N 34°23' W 119°30'1 1.3
2017-Dec-09 13:27N 34°22' W 119°30'0 0.0
2017-Dec-09 13:00N 34°22' W 119°30'0 0.0
2017-Dec-09 12:29N 34°22' W 119°30'0 0.0
2017-Dec-09 12:00N 34°22' W 119°30'0 0.0
2017-Dec-09 11:30N 34°22' W 119°30'0 0.0
2017-Dec-09 11:00N 34°22' W 119°30'0 0.0
2017-Dec-09 10:30N 34°22' W 119°30'0 0.0
2017-Dec-09 09:59N 34°22' W 119°30'0 0.0
2017-Dec-09 09:29N 34°22' W 119°30'0 0.0
2017-Dec-09 08:59N 34°22' W 119°30'0 0.0
2017-Dec-09 08:29N 34°22' W 119°30'0 0.0
2017-Dec-09 07:59N 34°22' W 119°30'0 0.0
2017-Dec-09 07:27N 34°22' W 119°30'0 0.0
2017-Dec-09 06:59N 34°22' W 119°30'0 0.0
2017-Dec-09 06:30N 34°22' W 119°30'0 0.0
2017-Dec-09 05:58N 34°22' W 119°30'0 0.0
2017-Dec-09 05:30N 34°22' W 119°30'0 0.0
2017-Dec-09 05:00N 34°22' W 119°30'0 0.0
2017-Dec-09 04:29N 34°22' W 119°30'0 0.0
2017-Dec-09 03:59N 34°22' W 119°30'0 0.0
2017-Dec-09 03:29N 34°22' W 119°30'0 0.0
2017-Dec-09 03:00N 34°22' W 119°30'0 0.0
2017-Dec-09 02:30N 34°22' W 119°30'0 0.0
2017-Dec-09 02:00N 34°22' W 119°30'0 0.1
2017-Dec-09 01:30N 34°22' W 119°30'0 0.0
2017-Dec-09 01:01N 34°22' W 119°30'0 0.1
2017-Dec-09 00:30N 34°22' W 119°30'0 0.0
2017-Dec-08 23:58N 34°22' W 119°30'3 6.2
2017-Dec-08 23:30N 34°21' W 119°33'3 6.1
2017-Dec-08 23:00N 34°20' W 119°36'0 0.3
2017-Dec-08 22:29N 34°20' W 119°36'0 0.0
2017-Dec-08 22:00N 34°20' W 119°36'2 4.4
2017-Dec-08 21:30N 34°20' W 119°34'0 0.1
2017-Dec-08 21:00N 34°20' W 119°34'3 4.7
2017-Dec-08 20:28N 34°20' W 119°37'0 0.1
2017-Dec-08 20:00N 34°20' W 119°37'1 1.7
2017-Dec-08 19:30N 34°20' W 119°38'0 1.0
2017-Dec-08 18:59N 34°20' W 119°37'1 1.1
2017-Dec-08 18:30N 34°20' W 119°38'1 2.9
2017-Dec-08 18:01N 34°20' W 119°36'4 7.8
2017-Dec-08 17:29N 34°22' W 119°32'2 3.5
2017-Dec-08 17:00N 34°23' W 119°30'0 0.0
2017-Dec-08 16:30N 34°23' W 119°30'2 4.5
2017-Dec-08 16:00N 34°21' W 119°32'510.1
2017-Dec-08 15:31N 34°17' W 119°35'3 5.6
2017-Dec-08 14:58N 34°20' W 119°37'613.0
2017-Dec-08 14:30N 34°23' W 119°30'0 0.0
2017-Dec-08 14:00N 34°23' W 119°30'2 3.5
2017-Dec-08 13:31N 34°22' W 119°31'2 4.7
2017-Dec-08 13:00N 34°20' W 119°34'0 0.0
2017-Dec-08 12:30N 34°20' W 119°34'0 0.0
2017-Dec-08 11:59N 34°20' W 119°34'0 0.0
2017-Dec-08 11:31N 34°20' W 119°34'0 0.0
2017-Dec-08 11:00N 34°20' W 119°34'0 0.0
2017-Dec-08 10:30N 34°20' W 119°34'0 0.0
2017-Dec-08 09:59N 34°20' W 119°34'0 0.0
2017-Dec-08 09:31N 34°20' W 119°34'0 0.0
2017-Dec-08 09:00N 34°20' W 119°34'0 0.0
2017-Dec-08 08:29N 34°20' W 119°34'0 0.0
2017-Dec-08 08:01N 34°20' W 119°34'0 0.0
2017-Dec-08 07:30N 34°20' W 119°34'0 0.0
2017-Dec-08 07:01N 34°20' W 119°34'0 0.0
2017-Dec-08 06:30N 34°20' W 119°34'0 0.0
2017-Dec-08 06:00N 34°20' W 119°34'0 0.0
2017-Dec-08 05:31N 34°20' W 119°34'0 0.0
2017-Dec-08 04:57N 34°20' W 119°34'0 0.0
2017-Dec-08 04:30N 34°20' W 119°34'0 0.0
2017-Dec-08 04:01N 34°20' W 119°34'2 4.4
2017-Dec-08 03:29N 34°21' W 119°32'5 9.6
2017-Dec-08 03:00N 34°20' W 119°37'611.4
2017-Dec-08 02:28N 34°23' W 119°30'1 1.5
2017-Dec-08 01:58N 34°23' W 119°30'0 0.0
2017-Dec-08 01:30N 34°23' W 119°30'1 1.4
2017-Dec-08 00:58N 34°23' W 119°30'1 1.5
2017-Dec-08 00:29N 34°22' W 119°30'0 0.0
2017-Dec-07 23:59N 34°22' W 119°30'0 0.1
2017-Dec-07 23:29N 34°22' W 119°30'612.1
2017-Dec-07 23:00N 34°20' W 119°36'611.8
2017-Dec-07 22:30N 34°22' W 119°30'0 0.1
2017-Dec-07 22:00N 34°23' W 119°30'0 0.0
2017-Dec-07 21:30N 34°23' W 119°30'0 0.0
2017-Dec-07 20:59N 34°23' W 119°30'0 0.0
2017-Dec-07 20:29N 34°23' W 119°30'0 0.0
2017-Dec-07 19:58N 34°23' W 119°30'0 0.0
2017-Dec-07 19:28N 34°23' W 119°30'0 0.0
2017-Dec-07 18:59N 34°23' W 119°30'0 0.0
2017-Dec-07 18:30N 34°23' W 119°30'0 0.0
2017-Dec-07 18:00N 34°23' W 119°30'1 1.4
2017-Dec-07 17:30N 34°23' W 119°31'612.9
2017-Dec-07 17:00N 34°20' W 119°38'612.7
2017-Dec-07 16:30N 34°23' W 119°31'1 1.5
2017-Dec-07 16:00N 34°22' W 119°30'510.7
2017-Dec-07 15:30N 34°20' W 119°36'2 4.1
2017-Dec-07 15:01N 34°20' W 119°33'4 6.6
2017-Dec-07 14:28N 34°23' W 119°30'0 1.0
2017-Dec-07 13:58N 34°22' W 119°30'0 0.0
2017-Dec-07 13:28N 34°22' W 119°30'0 0.0
2017-Dec-07 13:00N 34°22' W 119°30'0 0.0
2017-Dec-07 12:30N 34°22' W 119°30'0 0.0
2017-Dec-07 11:59N 34°22' W 119°30'0 0.0
2017-Dec-07 11:29N 34°22' W 119°30'0 0.0
2017-Dec-07 11:00N 34°22' W 119°30'0 0.0
2017-Dec-07 10:31N 34°22' W 119°30'0 0.0
2017-Dec-07 10:01N 34°22' W 119°30'0 0.0
2017-Dec-07 09:30N 34°22' W 119°30'0 0.0
2017-Dec-07 08:59N 34°22' W 119°30'0 0.0
2017-Dec-07 08:30N 34°22' W 119°30'0 0.0
2017-Dec-07 08:00N 34°22' W 119°30'0 0.0
2017-Dec-07 07:29N 34°22' W 119°30'0 0.0
2017-Dec-07 07:00N 34°22' W 119°30'0 0.0
2017-Dec-07 06:30N 34°22' W 119°30'1 1.3
2017-Dec-07 05:58N 34°23' W 119°30'613.2
2017-Dec-07 05:30N 34°20' W 119°37'1 1.9
2017-Dec-07 04:59N 34°20' W 119°38'0 0.0
2017-Dec-07 04:30N 34°20' W 119°38'3 6.8
2017-Dec-07 04:00N 34°20' W 119°34'1 2.9
2017-Dec-07 03:30N 34°21' W 119°32'4 7.6
2017-Dec-07 03:00N 34°20' W 119°37'612.0
2017-Dec-07 02:30N 34°23' W 119°31'0 0.5
2017-Dec-07 02:00N 34°23' W 119°30'0 0.6
2017-Dec-07 01:31N 34°23' W 119°30'713.5
2017-Dec-07 01:00N 34°20' W 119°38'611.9
2017-Dec-07 00:30N 34°22' W 119°31'0 0.4
2017-Dec-06 23:59N 34°22' W 119°31'511.4
2017-Dec-06 23:30N 34°20' W 119°37'2 3.0
2017-Dec-06 23:00N 34°19' W 119°36'2 3.2
2017-Dec-06 22:30N 34°17' W 119°35'0 0.2
2017-Dec-06 21:59N 34°17' W 119°35'3 5.7
2017-Dec-06 21:30N 34°20' W 119°36'4 8.6
2017-Dec-06 21:00N 34°24' W 119°39'  
2017-Dec-04 10:09N 34°22' W 119°30'0 0.0
2017-Dec-04 09:55N 34°22' W 119°30'0 0.0
2017-Dec-04 09:28N 34°22' W 119°30'0 0.0
2017-Dec-04 09:00N 34°22' W 119°30'0 0.0
2017-Dec-04 08:30N 34°22' W 119°30'0 0.0
2017-Dec-04 07:59N 34°22' W 119°30'0 0.0
2017-Dec-04 07:26N 34°22' W 119°30'0 0.0
2017-Dec-04 06:59N 34°22' W 119°30'0 0.0
2017-Dec-04 06:29N 34°22' W 119°30'0 0.0
2017-Dec-04 05:59N 34°22' W 119°30'0 0.0
2017-Dec-04 05:30N 34°22' W 119°30'0 0.0
2017-Dec-04 04:59N 34°22' W 119°30'0 0.0
2017-Dec-04 04:30N 34°22' W 119°30'0 0.0
2017-Dec-04 03:59N 34°22' W 119°30'0 0.0
2017-Dec-04 03:25N 34°22' W 119°30'0 0.0
2017-Dec-04 03:00N 34°22' W 119°30'0 0.0
2017-Dec-04 02:26N 34°22' W 119°30'0 0.0
2017-Dec-04 01:59N 34°22' W 119°30'1 1.5
2017-Dec-04 01:30N 34°23' W 119°30'0 0.9
2017-Dec-04 01:00N 34°23' W 119°31'4 9.1
2017-Dec-04 00:30N 34°20' W 119°35'1 2.6
2017-Dec-03 23:59N 34°20' W 119°37'0 0.3
2017-Dec-03 23:29N 34°20' W 119°37'0 0.0
2017-Dec-03 23:01N 34°20' W 119°37'0 0.4
2017-Dec-03 22:31N 34°20' W 119°37'0 0.9
2017-Dec-03 21:59N 34°20' W 119°37'0 0.8
2017-Dec-03 21:30N 34°20' W 119°37'0 0.0
2017-Dec-03 20:59N 34°20' W 119°37'0 0.0
2017-Dec-03 20:30N 34°20' W 119°37'0 0.1
2017-Dec-03 20:00N 34°20' W 119°37'0 0.0
2017-Dec-03 19:30N 34°20' W 119°37'0 0.0
2017-Dec-03 19:00N 34°20' W 119°37'0 0.0
2017-Dec-03 18:30N 34°20' W 119°37'0 0.0
2017-Dec-03 18:00N 34°20' W 119°37'0 0.0
2017-Dec-03 17:30N 34°20' W 119°37'0 0.0
2017-Dec-03 16:59N 34°20' W 119°37'511.2
2017-Dec-03 16:30N 34°23' W 119°31'1 1.2
2017-Dec-03 16:00N 34°23' W 119°30'4 8.0
2017-Dec-03 15:30N 34°20' W 119°34'2 4.7
2017-Dec-03 15:00N 34°20' W 119°37'611.8
2017-Dec-03 14:30N 34°23' W 119°30'0 0.6
2017-Dec-03 13:59N 34°23' W 119°31'1 1.7
2017-Dec-03 13:30N 34°22' W 119°30'0 0.0
2017-Dec-03 13:00N 34°22' W 119°30'0 0.0
2017-Dec-03 12:30N 34°22' W 119°30'0 0.0
2017-Dec-03 12:00N 34°22' W 119°30'0 0.0
2017-Dec-03 11:25N 34°22' W 119°30'0 0.0
2017-Dec-03 11:00N 34°22' W 119°30'0 0.0
2017-Dec-03 10:30N 34°22' W 119°30'0 0.0
2017-Dec-03 10:00N 34°22' W 119°30'0 0.0
2017-Dec-03 09:30N 34°22' W 119°30'0 0.0
2017-Dec-03 09:00N 34°22' W 119°30'0 0.0
2017-Dec-03 08:30N 34°22' W 119°30'0 0.0
2017-Dec-03 08:00N 34°22' W 119°30'0 0.0
2017-Dec-03 07:30N 34°22' W 119°30'0 0.0
2017-Dec-03 06:58N 34°22' W 119°30'0 0.0
2017-Dec-03 06:28N 34°22' W 119°30'0 0.0
2017-Dec-03 06:00N 34°22' W 119°30'0 0.0
2017-Dec-03 05:27N 34°22' W 119°30'0 0.0
2017-Dec-03 05:00N 34°22' W 119°30'0 0.0
2017-Dec-03 04:27N 34°22' W 119°30'0 0.0
2017-Dec-03 04:00N 34°22' W 119°30'0 0.0
2017-Dec-03 03:30N 34°22' W 119°30'0 0.0
2017-Dec-03 02:59N 34°22' W 119°30'0 0.0
2017-Dec-03 02:30N 34°22' W 119°30'0 0.0
2017-Dec-03 02:00N 34°22' W 119°30'1 1.2
2017-Dec-03 01:30N 34°23' W 119°30'1 1.2
2017-Dec-03 01:00N 34°22' W 119°30'0 0.0
2017-Dec-03 00:29N 34°22' W 119°30'0 0.0
2017-Dec-03 00:00N 34°22' W 119°30'0 0.0
2017-Dec-02 23:30N 34°22' W 119°30'0 0.0
2017-Dec-02 23:00N 34°22' W 119°30'714.0
2017-Dec-02 22:30N 34°20' W 119°38'3 6.9
2017-Dec-02 22:00N 34°23' W 119°38'3 6.8
2017-Dec-02 21:30N 34°24' W 119°42'0 0.0
2017-Dec-02 21:00N 34°24' W 119°42'0 0.0
2017-Dec-02 20:30N 34°24' W 119°42'1 2.8
2017-Dec-02 20:00N 34°24' W 119°40'815.6
2017-Dec-02 19:30N 34°23' W 119°30'0 0.0
2017-Dec-02 19:00N 34°23' W 119°30'0 0.0
2017-Dec-02 18:28N 34°23' W 119°30'511.0
2017-Dec-02 18:00N 34°20' W 119°35'1 1.3
2017-Dec-02 17:29N 34°20' W 119°36'0 0.1
2017-Dec-02 17:00N 34°20' W 119°36'1 1.1
2017-Dec-02 16:30N 34°20' W 119°37'0 0.8
2017-Dec-02 16:00N 34°20' W 119°37'0 1.0
2017-Dec-02 15:30N 34°20' W 119°38'4 8.6
2017-Dec-02 15:00N 34°20' W 119°33'3 6.3
2017-Dec-02 14:28N 34°23' W 119°30'0 0.8
2017-Dec-02 14:00N 34°23' W 119°31'1 1.5
2017-Dec-02 13:30N 34°22' W 119°30'0 0.0
2017-Dec-02 13:00N 34°22' W 119°30'0 0.0
2017-Dec-02 12:30N 34°22' W 119°30'0 0.0
2017-Dec-02 12:00N 34°22' W 119°30'0 0.0
2017-Dec-02 11:29N 34°22' W 119°30'0 0.0
2017-Dec-02 11:00N 34°22' W 119°30'0 0.0
2017-Dec-02 10:30N 34°22' W 119°30'0 0.0
2017-Dec-02 10:00N 34°22' W 119°30'0 0.0
2017-Dec-02 09:30N 34°22' W 119°30'0 0.0
2017-Dec-02 09:00N 34°22' W 119°30'0 0.0
2017-Dec-02 08:26N 34°22' W 119°30'0 0.0
2017-Dec-02 08:00N 34°22' W 119°30'0 0.0
2017-Dec-02 07:30N 34°22' W 119°30'0 0.0
2017-Dec-02 07:00N 34°22' W 119°30'0 0.0
2017-Dec-02 06:29N 34°22' W 119°30'0 0.0
2017-Dec-02 05:58N 34°22' W 119°30'0 0.0
2017-Dec-02 05:29N 34°22' W 119°30'0 0.0
2017-Dec-02 05:00N 34°22' W 119°30'0 0.0
2017-Dec-02 04:29N 34°22' W 119°30'0 0.0
2017-Dec-02 04:00N 34°22' W 119°30'0 0.0
2017-Dec-02 03:30N 34°22' W 119°30'0 0.0
2017-Dec-02 02:56N 34°22' W 119°30'0 0.0
2017-Dec-02 02:28N 34°22' W 119°30'0 0.0
2017-Dec-02 01:58N 34°22' W 119°30'0 0.4
2017-Dec-02 01:30N 34°23' W 119°30'0 0.0
2017-Dec-02 00:59N 34°23' W 119°30'0 0.0
2017-Dec-02 00:30N 34°23' W 119°30'0 0.0
2017-Dec-02 00:00N 34°23' W 119°30'2 3.2
2017-Dec-01 23:30N 34°21' W 119°32'510.0
2017-Dec-01 23:00N 34°20' W 119°37'1 1.1
2017-Dec-01 22:30N 34°20' W 119°38'0 0.3
2017-Dec-01 22:00N 34°20' W 119°38'4 6.8
2017-Dec-01 21:29N 34°17' W 119°35'2 4.4
2017-Dec-01 21:00N 34°19' W 119°37'3 5.8
2017-Dec-01 20:30N 34°20' W 119°33'0 0.4
2017-Dec-01 20:00N 34°20' W 119°33'3 5.6
2017-Dec-01 19:30N 34°20' W 119°37'0 1.0
2017-Dec-01 19:00N 34°20' W 119°36'0 0.0
2017-Dec-01 18:30N 34°20' W 119°36'2 4.3
2017-Dec-01 18:00N 34°20' W 119°34'4 7.1
2017-Dec-01 17:30N 34°23' W 119°31'0 0.8
2017-Dec-01 17:01N 34°23' W 119°30'  

Dump ship's entire track history